Time;durP1;ratioP1;P1;durP2;ratioP2;P2;SDS_P1;SDS_P2;PMS_P1;PMS_P2;Temp;Humidity;BMP_temperature;BMP_pressure;BME280_temperature;BME280_humidity;BME280_pressure;Samples;Min_cycle;Max_cycle;Signal;HPM_P1;HPM_P2
2021/12/21 00:01:12;;;;;;;2.60;2.40;;;;;;;-3.16;87.27;98979.16;1701691;84;21886;-80
2021/12/21 00:03:38;;;;;;;2.57;2.37;;;;;;;-3.14;87.31;98985.89;1701430;84;20926;-73
2021/12/21 00:06:05;;;;;;;2.30;2.10;;;;;;;-3.12;87.33;98989.66;1701559;84;21036;-74
2021/12/21 00:08:32;;;;;;;3.27;2.97;;;;;;;-3.15;87.17;99000.02;1701460;84;21114;-79
2021/12/21 00:10:59;;;;;;;4.30;2.17;;;;;;;-3.12;87.20;98998.87;1689935;83;21566;-76
2021/12/21 00:16:10;;;;;;;3.22;2.67;;;;;;;-3.14;86.90;99002.98;1684709;84;21503;-77
2021/12/21 00:18:36;;;;;;;2.63;2.43;;;;;;;-3.16;86.84;99005.45;1685535;83;20943;-78
2021/12/21 00:21:07;;;;;;;2.37;2.27;;;;;;;-3.17;86.78;99009.10;1682584;84;21022;-80
2021/12/21 00:23:33;;;;;;;2.37;2.23;;;;;;;-3.25;86.51;99007.34;1683217;83;20919;-78
2021/12/21 00:26:04;;;;;;;2.87;2.33;;;;;;;-3.25;86.30;99007.34;1684157;83;21301;-76
2021/12/21 00:28:35;;;;;;;3.90;2.53;;;;;;;-3.40;85.54;99034.09;1684067;83;20912;-76
2021/12/21 00:31:00;;;;;;;2.90;2.50;;;;;;;-3.42;85.58;99025.58;1653834;85;20858;-77
2021/12/21 00:33:26;;;;;;;2.70;2.50;;;;;;;-3.42;85.80;99031.33;1655755;84;20972;-76
2021/12/21 00:35:53;;;;;;;2.30;2.07;;;;;;;-3.42;85.71;99016.88;1640636;87;21023;-75
2021/12/21 00:38:21;;;;;;;2.00;1.83;;;;;;;-3.52;85.84;99031.08;1664224;85;21026;-80
2021/12/21 00:40:47;;;;;;;4.93;2.23;;;;;;;-3.52;85.98;99037.65;1708985;84;21071;-79
2021/12/21 00:43:13;;;;;;;1.93;1.83;;;;;;;-3.61;85.83;99029.51;1708847;84;21027;-73
2021/12/21 00:45:40;;;;;;;2.50;2.30;;;;;;;-3.62;85.82;99031.81;1687593;84;20980;-82
2021/12/21 00:48:07;;;;;;;2.97;2.63;;;;;;;-3.62;85.80;99021.30;1687263;84;21035;-79
2021/12/21 00:50:35;;;;;;;2.17;2.07;;;;;;;-3.67;85.27;99031.52;1671508;85;21611;-79
2021/12/21 00:53:01;;;;;;;2.20;2.10;;;;;;;-3.77;84.45;99037.50;1710899;83;21906;-86
2021/12/21 00:55:28;;;;;;;1.83;1.73;;;;;;;-3.86;83.61;99035.09;1726298;83;20950;-80
2021/12/21 00:57:54;;;;;;;2.67;2.13;;;;;;;-4.01;83.44;99035.84;1671113;84;21004;-77
2021/12/21 01:00:22;;;;;;;2.40;2.23;;;;;;;-4.06;83.38;99041.28;1685899;84;21149;-76
2021/12/21 01:02:49;;;;;;;2.00;1.90;;;;;;;-4.10;83.38;99047.87;1708461;84;22033;-73
2021/12/21 01:05:31;;;;;;;2.90;2.70;;;;;;;-4.12;83.30;99058.53;1695042;83;21540;-74
2021/12/21 01:07:54;;;;;;;2.53;2.30;;;;;;;-4.08;83.58;99060.34;1667317;84;21039;-73
2021/12/21 01:18:21;;;;;;;2.20;2.10;;;;;;;-4.00;83.82;99059.80;1661029;85;21669;-77
2021/12/21 01:20:53;;;;;;;3.37;2.60;;;;;;;-3.99;83.79;99064.56;1685559;84;21006;-81
2021/12/21 01:28:45;;;;;;;3.80;3.43;;;;;;;-3.92;84.11;99072.06;1726084;83;21102;-91
2021/12/21 01:36:44;;;;;;;4.07;3.50;;;;;;;-4.12;83.74;99076.91;1709434;83;21015;-74
2021/12/21 01:41:48;;;;;;;4.23;3.70;;;;;;;-4.09;83.77;99092.34;1707559;84;21076;-77
2021/12/21 01:44:27;;;;;;;3.65;3.35;;;;;;;-4.10;83.07;99093.33;1679668;84;20990;-80
2021/12/21 01:49:39;;;;;;;2.67;2.43;;;;;;;-4.11;82.02;99089.06;1683182;84;21559;-81
2021/12/21 01:52:12;;;;;;;3.37;3.07;;;;;;;-4.13;81.72;99085.80;1705405;82;21019;-78
2021/12/21 01:54:39;;;;;;;6.37;4.57;;;;;;;-4.11;81.74;99089.55;1684770;84;21179;-80
2021/12/21 01:57:05;;;;;;;6.07;4.03;;;;;;;-4.19;81.49;99093.04;1723165;83;21512;-79
2021/12/21 01:59:33;;;;;;;5.03;4.07;;;;;;;-4.22;81.48;99099.13;1679499;83;21014;-78
2021/12/21 02:02:00;;;;;;;3.60;3.30;;;;;;;-4.22;81.65;99103.86;1723401;83;21540;-80
2021/12/21 02:04:26;;;;;;;4.33;3.10;;;;;;;-4.23;81.70;99098.31;1704466;84;21575;-81
2021/12/21 02:06:54;;;;;;;1.90;1.80;;;;;;;-4.17;81.84;99101.55;1683506;84;21780;-80
2021/12/21 02:09:26;;;;;;;3.10;3.00;;;;;;;-4.10;81.92;99101.69;1681107;82;24367;-82
2021/12/21 02:11:49;;;;;;;3.40;3.20;;;;;;;-4.03;81.97;99111.33;1680497;84;21516;-81
2021/12/21 02:14:17;;;;;;;3.00;2.23;;;;;;;-3.96;81.80;99110.98;1701323;84;21662;-81
2021/12/21 02:17:00;;;;;;;3.97;3.53;;;;;;;-3.91;81.76;99117.52;1701644;84;21103;-79
2021/12/21 02:19:34;;;;;;;2.67;2.47;;;;;;;-3.86;81.73;99123.91;1663636;85;21970;-73
2021/12/21 02:22:06;;;;;;;2.50;2.30;;;;;;;-3.85;81.71;99125.55;1674499;85;21053;-77
2021/12/21 02:24:36;;;;;;;1.97;1.83;;;;;;;-3.84;81.68;99123.74;1673255;84;21042;-74
2021/12/21 02:27:18;;;;;;;2.33;2.13;;;;;;;-3.88;81.84;99129.02;1671453;85;21092;-77
2021/12/21 02:29:28;;;;;;;2.47;2.27;;;;;;;-3.97;82.12;99130.34;1691958;84;21046;-78
2021/12/21 02:31:54;;;;;;;2.10;1.90;;;;;;;-4.04;82.43;99135.16;1705742;84;21179;-77
2021/12/21 02:34:22;;;;;;;2.43;2.23;;;;;;;-4.12;82.69;99130.73;1705710;84;21046;-79
2021/12/21 02:36:54;;;;;;;2.17;1.97;;;;;;;-4.15;83.01;99129.77;1705605;84;21000;-76
2021/12/21 02:39:22;;;;;;;2.00;1.90;;;;;;;-4.15;83.29;99136.83;1708909;84;21421;-75
2021/12/21 02:41:49;;;;;;;2.87;2.57;;;;;;;-4.16;83.46;99128.62;1709369;84;21004;-77
2021/12/21 02:44:15;;;;;;;4.13;3.77;;;;;;;-4.17;83.51;99140.92;1674034;85;21089;-77
2021/12/21 02:46:42;;;;;;;2.43;2.20;;;;;;;-4.17;83.43;99136.98;1674148;85;21107;-74
2021/12/21 02:49:10;;;;;;;2.40;2.20;;;;;;;-4.18;83.00;99156.38;1693197;83;21068;-74
2021/12/21 02:51:42;;;;;;;2.20;2.10;;;;;;;-4.22;82.18;99151.11;1683201;84;21016;-73
2021/12/21 02:54:09;;;;;;;2.10;1.90;;;;;;;-4.25;82.00;99156.71;1710099;83;21092;-83
2021/12/21 02:56:35;;;;;;;2.07;1.97;;;;;;;-4.22;81.82;99151.63;1705999;84;21578;-81
2021/12/21 02:59:02;;;;;;;2.23;2.03;;;;;;;-4.23;81.60;99154.75;1705957;82;21035;-72
2021/12/21 03:01:29;;;;;;;2.50;2.30;;;;;;;-4.22;81.37;99155.57;1712297;82;21070;-75
2021/12/21 03:03:57;;;;;;;1.73;1.63;;;;;;;-4.22;81.50;99166.86;1685694;84;21002;-75
2021/12/21 03:12:10;;;;;;;2.27;2.10;;;;;;;-4.19;81.40;99165.23;1655951;85;20982;-76
2021/12/21 03:14:27;;;;;;;2.17;1.97;;;;;;;-4.21;81.33;99169.00;1685800;82;21070;-71
2021/12/21 03:16:55;;;;;;;2.07;1.93;;;;;;;-4.27;81.31;99178.39;1708797;82;21019;-71
2021/12/21 03:19:22;;;;;;;2.73;2.53;;;;;;;-4.27;81.49;99178.87;1679795;85;21046;-72
2021/12/21 03:21:48;;;;;;;3.80;2.90;;;;;;;-4.27;81.44;99182.81;1703854;83;21128;-74
2021/12/21 03:24:15;;;;;;;2.40;2.20;;;;;;;-4.31;81.29;99179.69;1699997;82;21050;-72
2021/12/21 03:26:43;;;;;;;2.70;2.50;;;;;;;-4.35;81.29;99184.13;1712227;82;21079;-70
2021/12/21 03:29:09;;;;;;;2.50;2.30;;;;;;;-4.40;81.45;99184.14;1687532;82;21051;-73
2021/12/21 03:31:36;;;;;;;1.90;1.80;;;;;;;-4.40;81.65;99182.00;1691124;83;21107;-72
2021/12/21 03:34:02;;;;;;;2.07;1.90;;;;;;;-4.36;81.78;99193.80;1685453;84;21192;-76
2021/12/21 03:36:29;;;;;;;2.37;2.27;;;;;;;-4.36;81.84;99191.17;1709768;83;21047;-76
2021/12/21 03:39:05;;;;;;;2.87;2.50;;;;;;;-4.34;81.93;99195.78;1711701;84;21027;-76
2021/12/21 03:41:26;;;;;;;2.13;1.90;;;;;;;-4.29;82.13;99192.66;1709355;82;21038;-78
2021/12/21 03:43:53;;;;;;;2.13;1.93;;;;;;;-4.26;82.20;99184.42;1683222;84;21574;-76
2021/12/21 03:46:19;;;;;;;2.60;2.40;;;;;;;-4.25;82.32;99187.39;1709857;82;21076;-77
2021/12/21 03:48:48;;;;;;;2.47;1.97;;;;;;;-4.28;82.46;99182.48;1710052;83;21027;-76
2021/12/21 03:51:16;;;;;;;2.03;1.80;;;;;;;-4.32;82.61;99185.94;1710030;84;21003;-76
2021/12/21 03:53:42;;;;;;;1.90;1.80;;;;;;;-4.35;82.88;99190.69;1710069;83;21172;-76
2021/12/21 03:58:53;;;;;;;2.07;1.90;;;;;;;-4.43;83.42;99191.53;1715225;81;21224;-76
2021/12/21 04:01:20;;;;;;;5.43;2.07;;;;;;;-4.42;83.48;99207.13;1679685;85;20967;-75
2021/12/21 04:03:48;;;;;;;1.97;1.87;;;;;;;-4.42;83.42;99196.62;1689072;84;20957;-75
2021/12/21 04:06:14;;;;;;;3.80;2.17;;;;;;;-4.41;83.45;99202.66;1711375;84;21082;-75
2021/12/21 04:08:41;;;;;;;2.23;2.00;;;;;;;-4.43;83.24;99201.54;1711124;84;21066;-76
2021/12/21 04:11:09;;;;;;;2.80;2.53;;;;;;;-4.46;83.13;99212.88;1710540;82;22154;-76
2021/12/21 04:13:35;;;;;;;1.83;1.73;;;;;;;-4.48;83.11;99205.16;1710236;83;21528;-76
2021/12/21 04:16:04;;;;;;;2.00;1.80;;;;;;;-4.44;83.20;99219.58;1698961;84;21500;-77
2021/12/21 04:18:34;;;;;;;2.53;2.33;;;;;;;-4.46;82.59;99224.16;1710183;81;21111;-76
2021/12/21 04:20:59;;;;;;;3.00;2.53;;;;;;;-4.57;82.58;99235.50;1709899;84;21036;-74
2021/12/21 04:23:25;;;;;;;2.07;1.87;;;;;;;-4.74;82.81;99235.15;1710062;83;21531;-73
2021/12/21 04:25:51;;;;;;;1.77;1.67;;;;;;;-4.86;83.06;99235.48;1701504;82;21018;-76
2021/12/21 04:28:18;;;;;;;6.33;3.10;;;;;;;-5.06;82.80;99249.05;1685907;84;21062;-74
2021/12/21 04:30:45;;;;;;;3.17;2.93;;;;;;;-5.28;82.52;99255.73;1709788;84;21146;-75
2021/12/21 04:33:11;;;;;;;12.40;6.40;;;;;;;-5.34;83.16;99240.64;1684606;83;21071;-74
2021/12/21 04:35:38;;;;;;;5.93;2.90;;;;;;;-5.50;83.56;99244.51;1710140;82;21092;-75
2021/12/21 04:40:57;;;;;;;;;;;;;;;-5.64;84.48;99256.41;1666616;86;21002;-75
2021/12/21 04:43:22;;;;;;;5.27;3.57;;;;;;;-5.68;83.73;99260.33;1682802;83;20160;-74
2021/12/21 04:45:49;;;;;;;8.13;3.60;;;;;;;-5.76;82.84;99258.99;1699672;84;21031;-77
2021/12/21 04:48:15;;;;;;;3.27;2.70;;;;;;;-5.83;82.75;99266.64;1696592;84;21922;-75
2021/12/21 04:50:44;;;;;;;5.33;3.20;;;;;;;-5.84;82.03;99280.70;1699589;84;21497;-75
2021/12/21 04:53:10;;;;;;;6.87;3.20;;;;;;;-5.84;81.90;99272.02;1703854;83;22274;-78
2021/12/21 04:55:36;;;;;;;6.07;5.00;;;;;;;-5.79;82.03;99274.52;1728901;82;21026;-74
2021/12/21 04:58:03;;;;;;;8.03;3.93;;;;;;;-5.76;81.62;99274.70;1703739;83;21524;-75
2021/12/21 05:00:30;;;;;;;3.43;3.10;;;;;;;-5.75;81.31;99295.47;1705931;83;21301;-75
2021/12/21 05:02:57;;;;;;;5.37;3.03;;;;;;;-5.78;79.85;99284.50;1708747;83;21073;-74
2021/12/21 05:05:23;;;;;;;2.97;2.43;;;;;;;-5.94;78.03;99285.25;1664305;84;21557;-76
2021/12/21 05:07:55;;;;;;;3.77;2.67;;;;;;;-5.95;77.58;99283.64;1668863;84;21560;-75
2021/12/21 05:10:19;;;;;;;5.47;2.80;;;;;;;-5.92;77.56;99292.97;1676654;84;21063;-75
2021/12/21 05:12:47;;;;;;;5.67;2.30;;;;;;;-5.98;75.98;99298.32;1703703;83;21008;-73
2021/12/21 05:15:13;;;;;;;6.33;4.03;;;;;;;-6.07;75.37;99301.86;1728820;83;21117;-74
2021/12/21 05:17:40;;;;;;;6.07;4.13;;;;;;;-6.09;75.78;99293.85;1726525;83;21068;-73
2021/12/21 05:20:07;;;;;;;3.80;3.40;;;;;;;-6.11;76.01;99297.92;1728815;83;21015;-73
2021/12/21 05:22:34;;;;;;;4.23;3.50;;;;;;;-6.12;76.07;99300.20;1723219;83;21052;-73
2021/12/21 05:25:01;;;;;;;3.53;3.23;;;;;;;-6.14;76.59;99298.23;1728978;83;21193;-71
2021/12/21 05:27:27;;;;;;;1.73;1.60;;;;;;;-6.14;76.87;99298.23;1724011;83;20972;-74
2021/12/21 05:29:54;;;;;;;4.60;3.37;;;;;;;-6.15;76.39;99308.36;1656653;84;21090;-75
2021/12/21 05:32:20;;;;;;;5.20;3.30;;;;;;;-6.22;76.58;99313.86;1675414;83;21055;-73
2021/12/21 05:34:47;;;;;;;2.07;1.97;;;;;;;-6.17;76.67;99310.30;1728956;83;21001;-74
2021/12/21 05:37:14;;;;;;;4.47;3.47;;;;;;;-6.18;75.93;99320.42;1722423;83;21164;-75
2021/12/21 05:39:55;;;;;;;6.80;2.90;;;;;;;-6.16;76.01;99325.03;1674814;84;21029;-76
2021/12/21 05:42:09;;;;;;;4.20;2.80;;;;;;;-6.17;75.38;99318.15;1741849;81;21002;-75
2021/12/21 05:44:36;;;;;;;2.53;2.20;;;;;;;-6.25;74.87;99324.16;1677961;84;21539;-75
2021/12/21 05:47:04;;;;;;;3.60;2.83;;;;;;;-6.33;74.87;99320.66;1730327;83;21653;-78
2021/12/21 05:49:33;;;;;;;5.77;4.03;;;;;;;-6.42;75.06;99332.00;1660751;83;21220;-77
2021/12/21 05:51:58;;;;;;;4.97;3.30;;;;;;;-6.42;75.26;99339.84;1710024;83;21562;-76
2021/12/21 05:54:25;;;;;;;3.17;2.87;;;;;;;-6.43;75.38;99340.36;1755226;81;21103;-78
2021/12/21 05:56:52;;;;;;;2.97;2.77;;;;;;;-6.46;75.25;99351.59;1673333;83;21331;-75
2021/12/21 05:59:19;;;;;;;4.67;4.10;;;;;;;-6.49;75.53;99354.03;1729001;82;21631;-74
2021/12/21 06:01:46;;;;;;;7.67;4.70;;;;;;;-6.48;75.83;99349.14;1679799;83;22044;-73
2021/12/21 06:04:13;;;;;;;4.67;2.50;;;;;;;-6.49;76.04;99354.03;1732339;81;21571;-73
2021/12/21 06:06:39;;;;;;;2.40;2.20;;;;;;;-6.55;76.66;99351.18;1728696;83;21232;-72
2021/12/21 06:09:09;;;;;;;2.20;2.00;;;;;;;-6.63;76.66;99358.00;1760474;80;21109;-74
2021/12/21 06:11:40;;;;;;;2.83;1.80;;;;;;;-6.69;76.80;99373.44;1712132;82;21062;-75
2021/12/21 06:14:22;;;;;;;3.20;2.13;;;;;;;-6.76;76.64;99383.66;1680313;84;21085;-74
2021/12/21 06:27:09;;;;;;;3.83;3.03;;;;;;;-6.97;76.27;99402.72;1675482;84;21881;-72
2021/12/21 06:29:35;;;;;;;2.33;2.07;;;;;;;-6.98;76.06;99409.38;1729585;83;20973;-75
2021/12/21 06:32:03;;;;;;;6.37;3.83;;;;;;;-6.98;75.53;99391.91;1697232;84;20961;-73
2021/12/21 06:34:31;;;;;;;7.23;4.40;;;;;;;-7.05;75.40;99394.79;1675576;84;21653;-73
2021/12/21 06:36:58;;;;;;;9.97;3.50;;;;;;;-7.03;75.66;99398.54;1680336;85;21054;-75
2021/12/21 06:39:26;;;;;;;4.97;2.47;;;;;;;-7.03;75.76;99398.54;1698929;84;21073;-74
2021/12/21 06:41:53;;;;;;;3.73;2.43;;;;;;;-7.05;75.69;99398.20;1691309;82;21070;-74
2021/12/21 06:44:21;;;;;;;4.70;2.27;;;;;;;-7.03;74.76;99408.52;1669296;82;21579;-75
2021/12/21 06:51:08;;;;;;;2.30;2.10;;;;;;;-7.07;73.14;99413.22;1667676;84;21523;-74
2021/12/21 06:52:12;;;;;;;3.00;2.70;;;;;;;-7.10;71.66;99415.30;1695043;82;21961;-73
2021/12/21 06:54:39;;;;;;;1.80;1.70;;;;;;;-7.21;70.76;99433.77;1717181;83;21549;-72
2021/12/21 06:57:06;;;;;;;2.33;2.07;;;;;;;-7.17;71.34;99426.80;1679284;83;21528;-74
2021/12/21 06:59:33;;;;;;;3.57;2.80;;;;;;;-7.12;71.29;99440.73;1653522;85;21111;-72
2021/12/21 07:02:00;;;;;;;4.83;1.73;;;;;;;-7.13;70.89;99438.61;1690604;83;21064;-75
2021/12/21 07:04:27;;;;;;;2.23;2.03;;;;;;;-7.21;70.39;99455.48;1695181;83;21130;-71
2021/12/21 07:06:55;;;;;;;2.70;2.03;;;;;;;-7.26;70.64;99465.55;1695579;83;21024;-75
2021/12/21 07:09:30;;;;;;;2.10;1.97;;;;;;;-7.36;71.24;99462.61;1672448;83;20997;-73
2021/12/21 07:12:09;;;;;;;2.10;1.90;;;;;;;-7.50;70.85;99455.58;1708444;83;21542;-73
2021/12/21 07:19:52;;;;;;;6.87;3.07;;;;;;;-7.69;71.99;99460.83;1662478;84;21046;-74
2021/12/21 07:22:18;;;;;;;4.00;3.40;;;;;;;-7.73;72.31;99463.38;1702034;82;20979;-73
2021/12/21 07:24:45;;;;;;;7.63;4.20;;;;;;;-7.74;72.73;99479.17;1710926;82;21023;-73
2021/12/21 07:27:11;;;;;;;5.57;3.53;;;;;;;-7.77;73.51;99471.62;1698991;84;21027;-74
2021/12/21 07:29:37;;;;;;;7.10;4.07;;;;;;;-7.76;73.85;99494.96;1716081;83;22686;-73
2021/12/21 07:32:05;;;;;;;2.30;2.10;;;;;;;-7.75;73.79;99476.21;1702805;84;20958;-75
2021/12/21 07:34:33;;;;;;;4.30;2.83;;;;;;;-7.75;73.76;99492.70;1680450;84;21128;-75
2021/12/21 07:36:59;;;;;;;4.03;3.23;;;;;;;-7.79;73.64;99483.98;1682365;84;21021;-75
2021/12/21 07:39:26;;;;;;;4.90;3.67;;;;;;;-7.75;73.91;99486.66;1722203;83;21389;-79
2021/12/21 07:41:52;;;;;;;2.10;1.90;;;;;;;-7.74;73.95;99500.05;1709788;82;21101;-77
2021/12/21 07:44:18;;;;;;;2.73;2.10;;;;;;;-7.83;73.64;99499.10;1715182;82;21098;-73
2021/12/21 07:46:46;;;;;;;3.67;2.47;;;;;;;-7.85;74.08;99502.31;1703921;83;20963;-74
2021/12/21 07:49:12;;;;;;;3.13;2.67;;;;;;;-7.85;74.40;99494.97;1677304;85;21053;-75
2021/12/21 07:51:40;;;;;;;4.47;3.87;;;;;;;-7.80;74.50;99503.20;1656196;84;21058;-75
2021/12/21 07:54:06;;;;;;;3.93;3.10;;;;;;;-7.85;74.45;99502.80;1678227;85;21112;-76
2021/12/21 07:56:32;;;;;;;3.20;2.90;;;;;;;-7.81;74.65;99506.77;1674497;83;21084;-77
2021/12/21 07:58:59;;;;;;;3.00;2.13;;;;;;;-7.85;74.07;99511.93;1671321;84;21029;-75
2021/12/21 08:01:27;;;;;;;4.23;3.27;;;;;;;-7.82;74.09;99512.50;1691401;83;21043;-75
2021/12/21 08:03:56;;;;;;;1.63;1.53;;;;;;;-7.91;72.85;99514.60;1690516;83;21066;-74
2021/12/21 08:06:22;;;;;;;2.83;1.70;;;;;;;-7.95;72.97;99519.75;1686363;85;21153;-75
2021/12/21 08:08:52;;;;;;;3.73;2.90;;;;;;;-7.99;72.88;99518.38;1680317;84;21222;-77
2021/12/21 08:14:03;;;;;;;5.10;4.05;;;;;;;-7.90;72.24;99525.86;1677454;85;21043;-75
2021/12/21 08:16:30;;;;;;;5.10;3.47;;;;;;;-7.95;70.38;99524.97;1655495;85;21074;-73
2021/12/21 08:18:57;;;;;;;5.63;3.93;;;;;;;-7.96;69.60;99541.11;1638583;85;22212;-76
2021/12/21 08:21:25;;;;;;;2.97;2.47;;;;;;;-7.91;69.36;99539.90;1677165;85;21047;-74
2021/12/21 08:23:51;;;;;;;2.03;1.87;;;;;;;-7.94;67.37;99551.42;1705319;84;21070;-75
2021/12/21 08:26:18;;;;;;;5.10;2.67;;;;;;;-8.04;65.95;99529.70;1677401;85;21141;-73
2021/12/21 08:28:44;;;;;;;2.43;2.07;;;;;;;-8.13;66.37;99542.26;1699659;83;21784;-75
2021/12/21 08:31:13;;;;;;;3.40;2.53;;;;;;;-8.17;66.87;99555.23;1718699;83;21895;-75
2021/12/21 08:33:41;;;;;;;3.43;2.90;;;;;;;-8.33;65.56;99551.86;1689571;83;20948;-72
2021/12/21 08:36:10;;;;;;;8.80;5.20;;;;;;;-8.41;66.14;99549.09;1701625;83;21080;-75
2021/12/21 08:38:40;;;;;;;5.10;3.03;;;;;;;-8.48;66.47;99550.57;1685642;83;21591;-75
2021/12/21 08:41:06;;;;;;;6.43;3.60;;;;;;;-8.49;67.16;99559.37;1696429;82;20999;-75
2021/12/21 08:43:35;;;;;;;6.93;3.70;;;;;;;-8.43;67.38;99556.22;1643779;85;21071;-72
2021/12/21 08:46:01;;;;;;;4.33;2.67;;;;;;;-8.40;67.33;99559.87;1701557;83;21004;-75
2021/12/21 08:48:27;;;;;;;5.23;3.10;;;;;;;-8.42;66.56;99567.83;1676644;84;21571;-71
2021/12/21 08:50:55;;;;;;;3.63;2.33;;;;;;;-8.42;66.95;99544.83;1684081;84;21105;-72
2021/12/21 08:53:24;;;;;;;4.53;2.63;;;;;;;-8.43;67.07;99561.43;1694433;84;21018;-71
2021/12/21 08:55:51;;;;;;;3.03;2.20;;;;;;;-8.36;67.64;99559.95;1652557;85;21830;-72
2021/12/21 08:58:18;;;;;;;8.73;3.53;;;;;;;-8.31;67.26;99564.30;1669763;85;21055;-72
2021/12/21 09:00:45;;;;;;;4.40;2.40;;;;;;;-8.36;66.48;99563.04;1673270;84;21106;-73
2021/12/21 09:03:13;;;;;;;5.37;2.87;;;;;;;-8.47;66.50;99562.18;1675375;84;21536;-78
2021/12/21 09:05:40;;;;;;;5.03;3.17;;;;;;;-8.55;67.25;99566.41;1700775;83;21022;-75
2021/12/21 09:08:10;;;;;;;2.80;2.60;;;;;;;-8.57;67.58;99570.44;1724626;81;21164;-76
2021/12/21 09:10:36;;;;;;;5.27;3.13;;;;;;;-8.64;67.29;99582.37;1678893;84;21015;-74
2021/12/21 09:13:04;;;;;;;3.50;2.30;;;;;;;-8.69;67.17;99576.72;1695906;84;22040;-74
2021/12/21 09:15:32;;;;;;;2.53;2.00;;;;;;;-8.75;66.56;99575.93;1678136;84;21122;-75
2021/12/21 09:17:59;;;;;;;3.87;3.10;;;;;;;-8.91;67.13;99586.81;1677595;84;21716;-74
2021/12/21 09:20:27;;;;;;;8.13;4.67;;;;;;;-8.89;67.42;99581.01;1676819;84;21016;-74
2021/12/21 09:22:53;;;;;;;2.93;2.10;;;;;;;-8.82;67.78;99599.53;1677204;84;21596;-74
2021/12/21 09:25:20;;;;;;;7.00;3.90;;;;;;;-8.82;67.47;99589.11;1657853;85;21072;-74
2021/12/21 09:27:46;;;;;;;4.57;2.93;;;;;;;-8.84;67.86;99561.91;1697072;84;21046;-73
2021/12/21 09:30:16;;;;;;;4.73;3.10;;;;;;;-8.82;67.62;99599.53;1696335;84;20986;-76
2021/12/21 09:32:42;;;;;;;5.40;2.87;;;;;;;-8.81;67.23;99594.68;1701651;84;21122;-74
2021/12/21 09:35:10;;;;;;;5.87;3.43;;;;;;;-8.88;66.19;99598.77;1684917;84;20967;-76
2021/12/21 09:37:37;;;;;;;5.73;3.33;;;;;;;-8.84;66.73;99594.95;1673966;84;21527;-75
2021/12/21 09:40:12;;;;;;;6.67;3.90;;;;;;;-8.77;66.50;99583.04;1665565;85;21079;-73
2021/12/21 09:42:39;;;;;;;2.87;2.20;;;;;;;-8.68;66.86;99601.80;1699358;84;21059;-72
2021/12/21 09:45:07;;;;;;;3.00;2.77;;;;;;;-8.66;65.24;99570.41;1690206;82;21050;-74
2021/12/21 09:47:33;;;;;;;4.70;2.63;;;;;;;-8.71;65.18;99585.13;1709937;84;21062;-72
2021/12/21 09:50:00;;;;;;;2.50;2.30;;;;;;;-8.73;64.37;99581.02;1684006;83;21551;-75
2021/12/21 09:52:33;;;;;;;8.00;3.23;;;;;;;-8.77;64.03;99606.49;1682966;84;21039;-74
2021/12/21 09:54:59;;;;;;;5.23;2.90;;;;;;;-8.80;64.00;99586.39;1709120;82;21693;-71
2021/12/21 09:57:26;;;;;;;2.27;2.07;;;;;;;-8.81;64.08;99592.08;1713021;82;21127;-74
2021/12/21 09:59:53;;;;;;;4.23;3.47;;;;;;;-8.79;63.92;99593.26;1683084;82;21586;-74
2021/12/21 10:02:21;;;;;;;6.77;3.70;;;;;;;-8.78;64.52;99585.80;1714924;82;21059;-75
2021/12/21 10:04:52;;;;;;;6.70;2.73;;;;;;;-8.72;64.93;99596.98;1684312;84;21067;-70
2021/12/21 10:07:19;;;;;;;3.63;2.83;;;;;;;-8.73;64.50;99584.45;1736279;81;21606;-74
2021/12/21 10:09:47;;;;;;;4.03;2.47;;;;;;;-8.70;64.76;99594.61;1714674;82;21112;-73
2021/12/21 10:12:29;;;;;;;5.27;3.87;;;;;;;-8.65;64.84;99582.48;1709512;83;21033;-74
2021/12/21 10:15:10;;;;;;;6.85;2.98;;;;;;;-8.67;63.90;99596.11;1727723;81;21542;-75
2021/12/21 10:17:40;;;;;;;2.87;2.50;;;;;;;-8.71;63.43;99587.73;1692987;84;21024;-86
2021/12/21 10:20:08;;;;;;;7.03;3.07;;;;;;;-8.77;62.90;99577.83;1714028;82;21625;-77
2021/12/21 10:22:38;;;;;;;7.10;3.60;;;;;;;-8.85;63.52;99606.32;1710161;83;21161;-78
2021/12/21 10:25:08;;;;;;;3.90;2.97;;;;;;;-8.98;63.98;99617.43;1683448;83;21059;-77
2021/12/21 10:27:42;;;;;;;7.03;5.53;;;;;;;-9.09;63.96;99605.29;1683996;83;20994;-70
2021/12/21 10:30:10;;;;;;;5.70;2.73;;;;;;;-9.08;64.30;99607.42;1702087;83;21456;-74
2021/12/21 10:32:36;;;;;;;7.60;3.63;;;;;;;-9.21;65.02;99632.36;1730349;82;21515;-70
2021/12/21 10:35:08;;;;;;;10.63;5.53;;;;;;;-9.22;65.67;99637.21;1699706;83;22208;-70
2021/12/21 10:37:38;;;;;;;4.25;3.30;;;;;;;-9.17;65.66;99604.28;1730582;81;21503;-73
2021/12/21 10:40:27;;;;;;;7.07;4.13;;;;;;;-9.07;65.58;99613.81;1673236;84;21165;-74
2021/12/21 10:42:59;;;;;;;5.33;4.57;;;;;;;-9.00;65.71;99610.20;1666978;85;21014;-71
2021/12/21 10:45:35;;;;;;;4.20;3.43;;;;;;;-8.95;65.73;99618.47;1659407;85;21091;-78
2021/12/21 10:48:03;;;;;;;6.73;4.60;;;;;;;-8.90;66.14;99626.72;1658042;83;21080;-71
2021/12/21 10:50:32;;;;;;;4.47;3.33;;;;;;;-8.86;66.18;99617.22;1708935;83;21574;-72
2021/12/21 10:52:58;;;;;;;5.77;4.00;;;;;;;-8.70;66.65;99635.48;1680415;83;21556;-73
2021/12/21 10:55:35;;;;;;;7.27;3.63;;;;;;;-8.61;65.50;99650.34;1660133;83;21049;-74
2021/12/21 10:58:15;;;;;;;5.57;3.90;;;;;;;-8.53;65.61;99629.66;1661853;84;21079;-71
2021/12/21 11:01:00;;;;;;;4.40;3.00;;;;;;;-8.55;64.30;99631.58;1682030;85;21177;-69
2021/12/21 11:03:36;;;;;;;5.03;2.40;;;;;;;-8.48;64.57;99628.78;1681975;85;21539;-71
2021/12/21 11:06:14;;;;;;;5.53;3.67;;;;;;;-8.56;63.74;99633.36;1697839;83;21634;-73
2021/12/21 11:08:44;;;;;;;6.63;4.73;;;;;;;-8.54;63.80;99630.16;1683890;82;21027;-76
2021/12/21 11:11:32;;;;;;;3.10;2.43;;;;;;;-8.53;63.85;99629.17;1683871;83;21089;-76
2021/12/21 11:14:14;;;;;;;3.33;2.77;;;;;;;-8.49;64.82;99624.55;1653864;86;21153;-76
2021/12/21 11:16:43;;;;;;;3.77;3.10;;;;;;;-8.50;66.02;99632.84;1680602;83;21061;-81
2021/12/21 11:19:12;;;;;;;3.80;3.43;;;;;;;-8.53;65.99;99646.12;1684313;83;21074;-76
2021/12/21 11:21:40;;;;;;;4.53;3.67;;;;;;;-8.54;65.54;99631.94;1648632;83;21574;-80
2021/12/21 11:24:11;;;;;;;4.97;3.97;;;;;;;-8.52;65.14;99646.48;1681173;84;21025;-77
2021/12/21 11:26:38;;;;;;;3.00;2.70;;;;;;;-8.57;65.04;99619.97;1658696;85;21774;-78
2021/12/21 11:29:09;;;;;;;6.67;3.30;;;;;;;-8.70;65.21;99638.91;1692336;83;20975;-75
2021/12/21 11:31:42;;;;;;;4.23;2.23;;;;;;;-8.79;65.04;99639.69;1691682;84;20997;-73
2021/12/21 11:34:15;;;;;;;3.00;2.53;;;;;;;-8.84;65.28;99658.31;1701539;83;21061;-72
2021/12/21 11:39:31;;;;;;;6.83;3.37;;;;;;;-9.13;65.94;99644.73;1675424;84;21237;-71
2021/12/21 11:42:00;;;;;;;5.07;2.93;;;;;;;-9.27;65.94;99676.64;1683094;84;21075;-71
2021/12/21 11:44:53;;;;;;;4.33;3.00;;;;;;;-9.25;65.82;99643.95;1656626;85;21088;-71
2021/12/21 11:47:30;;;;;;;3.80;3.45;;;;;;;-9.22;65.84;99656.74;1698550;82;21000;-72
2021/12/21 11:50:04;;;;;;;4.10;3.20;;;;;;;-9.15;65.76;99666.16;1684823;83;21093;-72
2021/12/21 11:52:32;;;;;;;4.50;4.07;;;;;;;-9.08;65.67;99653.00;1715295;81;21784;-72
2021/12/21 11:55:06;;;;;;;4.10;3.13;;;;;;;-9.03;65.55;99677.72;1608748;86;40501;-70
2021/12/21 11:57:41;;;;;;;3.35;2.65;;;;;;;-8.97;65.60;99678.50;1719922;81;21030;-69
2021/12/21 12:00:13;;;;;;;4.47;2.63;;;;;;;-8.93;65.17;99673.41;1697688;83;21048;-71
2021/12/21 12:02:40;;;;;;;2.47;2.22;;;;;;;-8.82;65.38;99680.82;1673535;83;21590;-72
2021/12/21 12:05:20;;;;;;;10.37;3.60;;;;;;;-8.78;64.84;99673.09;1720869;83;21094;-79
2021/12/21 12:08:04;;;;;;;3.20;2.23;;;;;;;-8.78;65.02;99692.16;1710016;82;21062;-79
2021/12/21 12:10:33;;;;;;;1.90;1.80;;;;;;;-8.72;65.02;99685.59;1650404;85;21118;-83
2021/12/21 12:13:13;;;;;;;3.17;2.43;;;;;;;-8.70;64.63;99697.55;1695521;83;20936;-81
2021/12/21 12:15:52;;;;;;;3.57;2.37;;;;;;;-8.70;64.53;99712.36;1710623;83;21098;-80
2021/12/21 12:18:24;;;;;;;2.60;2.40;;;;;;;-8.70;64.71;99685.00;1726009;83;21815;-79
2021/12/21 12:20:52;;;;;;;9.40;2.20;;;;;;;-8.76;65.04;99713.69;1710293;82;21044;-77
2021/12/21 12:23:19;;;;;;;4.33;3.07;;;;;;;-8.84;65.28;99688.28;1680002;85;21138;-71
2021/12/21 12:25:56;;;;;;;5.33;3.33;;;;;;;-8.82;66.04;99695.95;1726270;81;21066;-76
2021/12/21 12:28:27;;;;;;;2.73;2.47;;;;;;;-8.77;66.09;99690.35;1673998;85;21016;-72
2021/12/21 12:30:55;;;;;;;2.47;2.27;;;;;;;-8.81;65.69;99695.00;1689599;83;21114;-76
2021/12/21 12:33:21;;;;;;;4.63;3.03;;;;;;;-8.82;66.75;99704.59;1720631;83;21568;-75
2021/12/21 12:35:49;;;;;;;5.13;3.00;;;;;;;-8.79;67.77;99702.70;1680384;85;21057;-78
2021/12/21 12:38:21;;;;;;;3.90;2.67;;;;;;;-8.76;68.33;99721.98;1744500;81;21083;-84
2021/12/21 12:40:55;;;;;;;6.40;4.23;;;;;;;-8.76;68.88;99711.08;1732072;81;21022;-72
2021/12/21 12:43:29;;;;;;;2.77;2.47;;;;;;;-8.76;69.36;99711.56;1700937;83;21167;-79